Time;durP1;ratioP1;P1;durP2;ratioP2;P2;SDS_P1;SDS_P2;PMS_P1;PMS_P2;Temp;Humidity;BMP_temperature;BMP_pressure;BME280_temperature;BME280_humidity;BME280_pressure;Samples;Min_cycle;Max_cycle;Signal;HPM_P1;HPM_P2
2023/12/23 00:03:16;;;;;;;0.75;0.43;;;11.00;99.90;;;;;;10024203;28;20519;-69
2023/12/23 00:08:07;;;;;;;1.00;0.40;;;10.90;99.90;;;;;;10038418;28;20044;-70
2023/12/23 00:12:58;;;;;;;0.88;0.50;;;11.00;99.90;;;;;;10038265;28;20036;-70
2023/12/23 00:17:48;;;;;;;1.38;0.60;;;11.00;99.90;;;;;;10041498;28;20022;-70
2023/12/23 00:22:39;;;;;;;2.65;0.50;;;11.00;99.90;;;;;;10023984;28;20048;-69
2023/12/23 00:27:29;;;;;;;1.30;0.68;;;11.00;99.90;;;;;;10020703;28;20132;-70
2023/12/23 00:32:20;;;;;;;4.93;0.95;;;11.00;99.90;;;;;;10049967;28;20072;-72
2023/12/23 00:37:11;;;;;;;1.10;0.73;;;11.00;99.90;;;;;;10047844;28;20013;-72
2023/12/23 00:42:01;;;;;;;2.58;0.88;;;11.00;99.90;;;;;;10042922;28;20022;-71
2023/12/23 00:46:52;;;;;;;3.13;0.90;;;11.00;99.90;;;;;;10020240;28;20579;-71
2023/12/23 00:51:42;;;;;;;3.08;0.80;;;11.10;99.90;;;;;;10032491;28;20100;-72
2023/12/23 00:56:33;;;;;;;0.85;0.40;;;11.00;99.90;;;;;;10027749;28;20021;-71
2023/12/23 01:01:24;;;;;;;1.48;1.20;;;11.00;99.90;;;;;;10021995;28;20026;-72
2023/12/23 01:06:14;;;;;;;1.25;0.50;;;11.00;99.90;;;;;;10023398;28;20026;-71
2023/12/23 01:11:05;;;;;;;2.22;0.63;;;10.90;99.90;;;;;;10032747;28;20040;-71
2023/12/23 01:15:56;;;;;;;2.60;0.60;;;10.90;99.90;;;;;;10043916;28;20520;-71
2023/12/23 01:20:46;;;;;;;2.28;0.47;;;10.90;99.90;;;;;;10030656;28;20531;-73
2023/12/23 01:25:37;;;;;;;1.63;0.70;;;10.90;99.90;;;;;;10024649;28;20022;-71
2023/12/23 01:30:27;;;;;;;2.10;0.63;;;10.90;99.90;;;;;;10005911;28;20057;-72
2023/12/23 01:35:18;;;;;;;1.05;0.70;;;10.80;99.90;;;;;;10046589;28;20057;-71
2023/12/23 01:40:09;;;;;;;1.98;0.38;;;10.90;99.90;;;;;;10032461;28;20363;-70
2023/12/23 01:45:00;;;;;;;3.92;0.85;;;10.90;99.90;;;;;;10042557;28;20026;-71
2023/12/23 01:49:50;;;;;;;1.50;0.70;;;10.90;99.90;;;;;;10037596;28;20044;-70
2023/12/23 01:54:41;;;;;;;1.20;0.73;;;10.90;99.90;;;;;;10031309;28;20061;-70
2023/12/23 01:59:32;;;;;;;0.60;0.32;;;10.80;99.90;;;;;;10025233;28;20072;-70
2023/12/23 02:04:23;;;;;;;0.45;0.22;;;10.80;99.90;;;;;;10005624;28;20101;-72
2023/12/23 02:09:14;;;;;;;0.40;0.20;;;10.80;99.90;;;;;;10016706;28;20046;-70
2023/12/23 02:14:09;;;;;;;1.27;0.50;;;10.80;99.90;;;;;;10026025;28;20029;-70
2023/12/23 02:19:00;;;;;;;1.23;1.23;;;10.70;99.90;;;;;;10030971;28;20032;-72
2023/12/23 02:23:51;;;;;;;0.60;0.20;;;10.60;99.90;;;;;;10028857;28;20033;-71
2023/12/23 02:28:42;;;;;;;0.52;0.35;;;10.70;99.90;;;;;;10027014;28;20042;-70
2023/12/23 02:33:33;;;;;;;0.28;0.20;;;10.60;99.90;;;;;;10049567;28;20029;-70
2023/12/23 02:38:24;;;;;;;0.28;0.25;;;10.60;99.90;;;;;;10029894;28;20447;-71
2023/12/23 02:43:14;;;;;;;0.50;0.40;;;10.80;99.90;;;;;;10035139;28;20022;-70
2023/12/23 02:48:05;;;;;;;0.47;0.30;;;10.70;99.90;;;;;;10017916;28;20065;-71
2023/12/23 02:52:56;;;;;;;1.17;0.30;;;10.60;99.90;;;;;;10028871;28;20050;-71
2023/12/23 02:57:47;;;;;;;2.65;0.40;;;10.70;99.90;;;;;;10030319;28;20018;-70
2023/12/23 03:02:38;;;;;;;1.15;0.60;;;10.70;99.90;;;;;;10006490;28;20041;-71
2023/12/23 03:07:28;;;;;;;1.40;0.30;;;10.60;99.90;;;;;;10049970;28;20113;-70
2023/12/23 03:12:19;;;;;;;0.38;0.38;;;10.60;99.90;;;;;;10050407;28;20040;-70
2023/12/23 03:17:10;;;;;;;0.82;0.50;;;10.60;99.90;;;;;;10048348;28;20021;-74
2023/12/23 03:22:00;;;;;;;0.28;0.15;;;10.60;99.90;;;;;;10032762;28;20026;-71
2023/12/23 03:26:51;;;;;;;0.28;0.20;;;10.70;99.90;;;;;;10028074;28;20048;-75
2023/12/23 03:31:42;;;;;;;0.40;0.25;;;10.70;99.90;;;;;;10035429;28;20030;-72
2023/12/23 03:36:32;;;;;;;0.50;0.38;;;10.70;99.90;;;;;;10055444;28;20597;-71
2023/12/23 03:41:23;;;;;;;1.98;0.90;;;10.60;99.90;;;;;;10049966;28;20025;-74
2023/12/23 03:46:19;;;;;;;0.77;0.32;;;10.50;99.90;;;;;;10036931;28;20053;-71
2023/12/23 03:51:10;;;;;;;0.90;0.40;;;10.60;99.90;;;;;;10038303;28;20033;-75
2023/12/23 03:56:00;;;;;;;0.40;0.32;;;10.50;99.90;;;;;;10007100;28;20396;-72
2023/12/23 04:00:51;;;;;;;0.35;0.35;;;10.60;99.90;;;;;;10027552;28;20096;-73
2023/12/23 04:05:42;;;;;;;1.63;0.30;;;10.60;99.90;;;;;;10003113;28;20337;-70
2023/12/23 04:10:32;;;;;;;2.60;0.40;;;10.70;99.90;;;;;;10038018;28;20552;-70
2023/12/23 04:15:23;;;;;;;0.40;0.20;;;10.60;99.90;;;;;;10047434;28;20487;-71
2023/12/23 04:20:13;;;;;;;0.30;0.20;;;10.70;99.90;;;;;;10034804;28;20482;-70
2023/12/23 04:25:05;;;;;;;3.03;0.20;;;10.60;99.90;;;;;;10022720;28;20476;-70
2023/12/23 04:29:55;;;;;;;0.45;0.10;;;10.60;99.90;;;;;;10032217;28;20131;-70
2023/12/23 04:34:46;;;;;;;0.30;0.10;;;10.70;99.90;;;;;;10035217;28;20052;-72
2023/12/23 04:39:36;;;;;;;0.30;0.30;;;10.70;99.90;;;;;;10046880;28;20039;-69
2023/12/23 04:44:27;;;;;;;5.38;0.32;;;10.70;99.90;;;;;;10022150;28;20026;-70
2023/12/23 04:49:18;;;;;;;0.32;0.25;;;10.60;99.90;;;;;;10035229;28;20045;-70
2023/12/23 04:54:10;;;;;;;0.47;0.17;;;10.60;99.90;;;;;;10026423;28;20026;-70
2023/12/23 04:59:01;;;;;;;0.20;0.10;;;10.60;99.90;;;;;;10004926;28;20491;-70
2023/12/23 05:03:52;;;;;;;0.45;0.20;;;10.60;99.90;;;;;;10023101;28;20088;-71
2023/12/23 05:08:42;;;;;;;0.32;0.10;;;10.60;99.90;;;;;;10051656;28;20033;-70
2023/12/23 05:13:33;;;;;;;1.58;0.17;;;10.70;99.90;;;;;;10044880;28;20021;-71
2023/12/23 05:18:23;;;;;;;0.10;0.10;;;10.60;99.90;;;;;;10037045;28;20025;-73
2023/12/23 05:23:14;;;;;;;0.00;0.00;;;10.60;99.90;;;;;;9996071;28;20100;-74
2023/12/23 05:28:05;;;;;;;0.50;0.10;;;10.60;99.90;;;;;;10013977;28;20057;-70
2023/12/23 05:32:56;;;;;;;0.17;0.10;;;10.60;99.90;;;;;;10040023;28;20049;-70
2023/12/23 05:37:46;;;;;;;1.00;0.40;;;10.60;99.90;;;;;;10034770;28;20454;-71
2023/12/23 05:42:37;;;;;;;0.43;0.10;;;10.60;99.90;;;;;;10035518;28;20235;-70
2023/12/23 05:47:29;;;;;;;0.17;0.17;;;10.60;99.90;;;;;;10017238;28;20034;-70
2023/12/23 05:52:19;;;;;;;0.35;0.30;;;10.50;99.90;;;;;;10011275;28;20037;-71
2023/12/23 05:57:10;;;;;;;0.88;0.30;;;10.60;99.90;;;;;;10030421;28;20033;-74
2023/12/23 06:02:01;;;;;;;0.40;0.17;;;10.60;99.90;;;;;;10026921;28;20041;-71
2023/12/23 06:06:51;;;;;;;0.82;0.38;;;10.60;99.90;;;;;;10048387;28;20024;-70
2023/12/23 06:11:42;;;;;;;0.13;0.10;;;10.60;99.90;;;;;;10053440;28;20593;-73
2023/12/23 06:16:40;;;;;;;0.20;0.15;;;10.60;99.90;;;;;;10032760;28;20021;-75
2023/12/23 06:21:31;;;;;;;0.30;0.20;;;10.60;99.90;;;;;;10032425;28;20022;-73
2023/12/23 06:26:22;;;;;;;0.30;0.20;;;10.50;99.90;;;;;;10026083;28;20056;-71
2023/12/23 06:31:13;;;;;;;0.40;0.10;;;10.60;99.90;;;;;;10034160;28;20068;-74
2023/12/23 06:36:04;;;;;;;0.40;0.25;;;10.50;99.90;;;;;;10050262;28;20032;-70
2023/12/23 06:40:55;;;;;;;0.22;0.20;;;10.60;99.90;;;;;;10032531;28;20032;-71
2023/12/23 06:45:46;;;;;;;0.40;0.28;;;10.60;99.90;;;;;;10038587;28;20029;-70
2023/12/23 06:50:36;;;;;;;0.00;0.00;;;10.60;99.90;;;;;;10036701;28;20051;-70
2023/12/23 06:55:27;;;;;;;0.20;0.10;;;10.60;99.90;;;;;;10031505;28;20520;-71
2023/12/23 07:00:18;;;;;;;0.40;0.20;;;10.60;99.90;;;;;;10028143;28;20082;-72
2023/12/23 07:05:09;;;;;;;0.55;0.52;;;10.50;99.90;;;;;;10032837;28;20014;-70
2023/12/23 07:09:59;;;;;;;0.45;0.40;;;10.60;99.90;;;;;;10052992;28;20038;-70
2023/12/23 07:14:50;;;;;;;0.20;0.15;;;10.60;99.90;;;;;;10049055;28;20036;-71
2023/12/23 07:19:41;;;;;;;0.30;0.20;;;10.60;99.90;;;;;;10034041;28;20030;-71
2023/12/23 07:24:31;;;;;;;0.28;0.20;;;10.60;99.90;;;;;;10007765;28;20124;-70
2023/12/23 07:29:22;;;;;;;0.15;0.10;;;10.60;99.90;;;;;;10044093;28;20129;-71
2023/12/23 07:34:12;;;;;;;0.52;0.30;;;10.60;99.90;;;;;;10043928;28;20079;-70
2023/12/23 07:39:05;;;;;;;1.65;0.25;;;10.70;99.90;;;;;;10029003;28;20030;-71
2023/12/23 07:43:56;;;;;;;0.88;0.30;;;10.50;99.90;;;;;;10030379;28;20032;-70
2023/12/23 07:48:47;;;;;;;1.70;0.47;;;10.60;99.90;;;;;;10035411;28;20087;-70
2023/12/23 07:53:37;;;;;;;0.10;0.10;;;10.60;99.90;;;;;;10030035;28;20038;-71
2023/12/23 07:58:28;;;;;;;1.88;0.30;;;10.50;99.90;;;;;;10023370;28;20030;-73
2023/12/23 08:03:19;;;;;;;0.60;0.40;;;10.50;99.90;;;;;;10022995;28;20021;-73
2023/12/23 08:08:10;;;;;;;0.52;0.10;;;10.50;99.90;;;;;;10054004;28;20025;-71
2023/12/23 08:13:01;;;;;;;0.47;0.25;;;10.50;99.90;;;;;;10046641;28;20120;-72
2023/12/23 08:17:52;;;;;;;0.25;0.10;;;10.50;99.90;;;;;;10038586;28;20148;-70
2023/12/23 08:22:42;;;;;;;0.22;0.10;;;10.50;99.90;;;;;;10028559;28;20034;-71
2023/12/23 08:27:33;;;;;;;0.10;0.10;;;10.50;99.90;;;;;;10003772;28;20060;-71
2023/12/23 08:32:24;;;;;;;0.22;0.10;;;10.50;99.90;;;;;;10051334;28;20491;-71
2023/12/23 08:37:15;;;;;;;0.60;0.55;;;10.50;99.90;;;;;;10048338;28;20550;-73
2023/12/23 08:42:06;;;;;;;0.47;0.10;;;10.60;99.90;;;;;;10044024;28;20027;-71
2023/12/23 08:46:56;;;;;;;0.75;0.10;;;10.60;99.90;;;;;;10037265;28;20037;-71
2023/12/23 08:51:48;;;;;;;0.28;0.13;;;10.50;99.90;;;;;;10034568;28;20491;-71
2023/12/23 08:56:38;;;;;;;0.57;0.20;;;10.50;99.90;;;;;;10030007;28;20184;-71
2023/12/23 09:01:29;;;;;;;0.93;0.10;;;10.50;99.90;;;;;;10024295;28;20062;-69
2023/12/23 09:06:20;;;;;;;0.00;0.00;;;10.50;99.90;;;;;;10023769;28;20056;-70
2023/12/23 09:11:10;;;;;;;0.40;0.20;;;10.50;99.90;;;;;;10033990;28;20120;-71
2023/12/23 09:16:05;;;;;;;0.50;0.20;;;10.60;99.90;;;;;;10038746;28;20030;-69
2023/12/23 09:20:55;;;;;;;0.40;0.10;;;10.50;99.90;;;;;;10027033;28;20109;-70
2023/12/23 09:25:53;;;;;;;0.10;0.10;;;10.60;99.90;;;;;;10024012;28;20555;-71
2023/12/23 09:30:44;;;;;;;0.20;0.10;;;10.60;99.90;;;;;;10005766;28;20153;-72
2023/12/23 09:35:34;;;;;;;0.17;0.17;;;10.60;99.90;;;;;;10052841;28;20647;-70
2023/12/23 09:40:25;;;;;;;0.00;0.00;;;10.60;99.90;;;;;;10053241;28;20021;-71
2023/12/23 09:45:18;;;;;;;0.47;0.47;;;10.60;99.90;;;;;;10045046;28;20053;-70
2023/12/23 09:50:09;;;;;;;0.57;0.20;;;10.60;99.90;;;;;;10043112;28;20117;-70
2023/12/23 09:55:03;;;;;;;0.60;0.10;;;10.70;99.90;;;;;;10038896;28;20109;-68
2023/12/23 09:59:55;;;;;;;0.00;0.00;;;10.70;99.90;;;;;;10033038;28;20116;-72
2023/12/23 10:04:46;;;;;;;0.17;0.10;;;10.70;99.90;;;;;;10027704;28;20018;-69
2023/12/23 10:09:37;;;;;;;0.77;0.28;;;10.60;99.90;;;;;;10026955;28;20578;-71
2023/12/23 10:14:28;;;;;;;1.13;0.20;;;10.70;99.90;;;;;;10034278;28;20104;-70
2023/12/23 10:19:21;;;;;;;0.57;0.28;;;10.70;99.90;;;;;;10040872;28;20105;-69
2023/12/23 10:24:11;;;;;;;0.20;0.10;;;10.70;99.90;;;;;;10032387;28;20411;-69
2023/12/23 10:29:04;;;;;;;1.02;0.15;;;10.70;99.90;;;;;;10002065;28;20055;-69
2023/12/23 10:33:58;;;;;;;0.17;0.17;;;10.70;99.90;;;;;;10009373;28;20076;-69
2023/12/23 10:38:58;;;;;;;0.77;0.20;;;10.70;99.90;;;;;;10015122;28;20030;-73
2023/12/23 10:43:50;;;;;;;0.50;0.17;;;10.80;99.90;;;;;;10008223;28;20092;-69
2023/12/23 10:48:41;;;;;;;0.55;0.22;;;10.70;99.90;;;;;;10004553;28;20018;-70
2023/12/23 10:53:33;;;;;;;0.30;0.20;;;10.70;99.90;;;;;;9999872;28;20030;-74
2023/12/23 10:58:25;;;;;;;0.60;0.20;;;10.80;99.90;;;;;;9994507;28;20502;-69
2023/12/23 11:03:16;;;;;;;0.30;0.28;;;10.90;99.90;;;;;;9971283;28;20033;-70
2023/12/23 11:08:12;;;;;;;0.75;0.45;;;10.80;99.90;;;;;;9977528;28;20033;-70
2023/12/23 11:13:04;;;;;;;0.80;0.30;;;10.90;99.90;;;;;;9975663;28;20038;-69
2023/12/23 11:17:54;;;;;;;1.30;0.20;;;10.90;99.90;;;;;;9998360;28;20065;-69
2023/12/23 11:22:45;;;;;;;0.20;0.20;;;10.90;99.90;;;;;;9991396;28;20416;-71
2023/12/23 11:27:37;;;;;;;0.25;0.15;;;10.90;99.90;;;;;;9988219;28;20523;-70
2023/12/23 11:32:33;;;;;;;0.55;0.20;;;10.80;99.90;;;;;;10028506;28;20045;-70
2023/12/23 11:37:51;;;;;;;0.22;0.10;;;10.90;99.90;;;;;;10051369;28;20018;-70
2023/12/23 11:42:43;;;;;;;1.20;0.47;;;10.80;99.90;;;;;;10028059;28;20037;-70
2023/12/23 11:47:33;;;;;;;0.32;0.20;;;10.80;99.90;;;;;;10040689;28;20028;-73
2023/12/23 11:52:26;;;;;;;0.32;0.20;;;10.80;99.90;;;;;;10033104;28;20404;-74
2023/12/23 11:57:16;;;;;;;0.50;0.20;;;10.80;99.90;;;;;;10008279;28;20029;-71
2023/12/23 12:02:09;;;;;;;0.90;0.40;;;10.90;99.90;;;;;;10002762;28;20403;-70
2023/12/23 12:07:00;;;;;;;0.30;0.20;;;10.90;99.90;;;;;;10012801;28;20025;-74
2023/12/23 12:11:51;;;;;;;0.50;0.28;;;11.00;99.90;;;;;;10036525;28;20088;-71
2023/12/23 12:16:41;;;;;;;0.30;0.30;;;11.00;99.90;;;;;;10028171;28;20080;-73
2023/12/23 12:21:32;;;;;;;2.40;0.57;;;11.00;99.90;;;;;;10012309;28;20033;-72
2023/12/23 12:26:23;;;;;;;0.65;0.30;;;11.00;99.90;;;;;;10019446;28;20400;-73
2023/12/23 12:31:14;;;;;;;0.45;0.40;;;11.00;99.90;;;;;;10020539;28;20045;-74
2023/12/23 12:36:13;;;;;;;0.30;0.30;;;11.10;99.90;;;;;;10052580;28;20048;-74
2023/12/23 12:41:07;;;;;;;0.68;0.38;;;11.10;99.90;;;;;;10044931;28;20034;-74
2023/12/23 12:45:57;;;;;;;0.30;0.30;;;11.10;99.90;;;;;;10042455;28;20417;-73
2023/12/23 12:50:48;;;;;;;0.20;0.10;;;11.00;99.90;;;;;;10035651;28;20124;-70
2023/12/23 12:55:38;;;;;;;1.23;0.20;;;11.00;99.90;;;;;;10029893;28;20037;-73
2023/12/23 13:00:29;;;;;;;0.98;0.30;;;11.00;99.90;;;;;;10024002;28;20040;-70
2023/12/23 13:05:21;;;;;;;0.13;0.10;;;11.00;99.90;;;;;;10020139;28;20029;-71
2023/12/23 13:10:11;;;;;;;0.57;0.20;;;11.00;99.90;;;;;;10028290;28;20034;-71
2023/12/23 13:15:02;;;;;;;0.25;0.13;;;11.10;99.90;;;;;;10039797;28;20120;-71
2023/12/23 13:19:53;;;;;;;0.15;0.15;;;11.10;99.90;;;;;;10028387;28;20041;-70
2023/12/23 13:24:44;;;;;;;0.75;0.35;;;11.10;99.90;;;;;;10020306;28;20030;-70
2023/12/23 13:29:35;;;;;;;0.40;0.30;;;11.10;99.90;;;;;;10029528;28;20045;-70
2023/12/23 13:34:26;;;;;;;0.20;0.20;;;11.10;99.90;;;;;;10045533;28;20025;-71
2023/12/23 13:39:16;;;;;;;0.70;0.25;;;11.10;99.90;;;;;;10044422;28;20033;-72
2023/12/23 13:44:07;;;;;;;0.35;0.30;;;11.10;99.90;;;;;;10021202;28;20026;-70
2023/12/23 13:48:58;;;;;;;1.48;0.50;;;11.10;99.90;;;;;;10034052;28;20044;-69
2023/12/23 13:53:48;;;;;;;0.35;0.32;;;11.10;99.90;;;;;;10011384;28;20056;-73
2023/12/23 13:58:39;;;;;;;1.10;0.30;;;11.10;99.90;;;;;;10023348;28;20026;-69
2023/12/23 14:03:29;;;;;;;0.50;0.30;;;11.10;99.90;;;;;;10018329;28;20263;-70
2023/12/23 14:08:20;;;;;;;0.43;0.30;;;11.10;99.90;;;;;;10037676;28;20515;-69
2023/12/23 14:13:11;;;;;;;0.65;0.13;;;11.20;99.90;;;;;;10044007;28;20095;-73
2023/12/23 14:18:03;;;;;;;0.50;0.40;;;11.10;99.90;;;;;;10024730;28;20129;-71
2023/12/23 14:22:54;;;;;;;0.90;0.32;;;11.10;99.90;;;;;;10031742;28;20025;-72
2023/12/23 14:27:45;;;;;;;0.85;0.38;;;11.10;99.90;;;;;;10027561;28;20515;-74
2023/12/23 14:32:35;;;;;;;0.98;0.40;;;11.10;99.90;;;;;;10035161;28;20041;-70
2023/12/23 14:37:26;;;;;;;1.65;0.30;;;11.20;99.90;;;;;;10056051;28;20021;-70
2023/12/23 14:42:17;;;;;;;0.75;0.30;;;11.10;99.90;;;;;;10048742;28;20029;-69
2023/12/23 14:47:08;;;;;;;0.60;0.30;;;11.10;99.90;;;;;;10040200;28;20174;-69
2023/12/23 14:51:59;;;;;;;0.50;0.40;;;11.10;99.90;;;;;;10035907;28;20034;-71
2023/12/23 14:56:49;;;;;;;1.00;0.68;;;11.10;99.90;;;;;;10032158;28;20022;-72
2023/12/23 15:01:40;;;;;;;0.88;0.40;;;11.10;99.90;;;;;;10016523;28;20146;-69
2023/12/23 15:06:31;;;;;;;0.95;0.32;;;11.10;99.90;;;;;;10033506;28;20645;-70
2023/12/23 15:11:21;;;;;;;1.75;1.13;;;11.10;99.90;;;;;;10041742;28;20041;-69
2023/12/23 15:16:12;;;;;;;1.20;0.63;;;11.10;99.90;;;;;;10045895;28;20031;-70
2023/12/23 15:21:04;;;;;;;0.32;0.30;;;11.10;99.90;;;;;;10032769;28;20022;-70
2023/12/23 15:25:55;;;;;;;0.30;0.30;;;11.10;99.90;;;;;;10026592;28;20396;-71
2023/12/23 15:30:46;;;;;;;0.70;0.40;;;11.10;99.90;;;;;;10041666;28;20054;-72
2023/12/23 15:35:37;;;;;;;0.47;0.30;;;11.20;99.90;;;;;;10037258;28;20028;-71
2023/12/23 15:40:28;;;;;;;0.63;0.40;;;11.20;99.90;;;;;;10049191;28;20025;-74
2023/12/23 15:45:19;;;;;;;0.30;0.30;;;11.20;99.90;;;;;;10043239;28;20018;-73
2023/12/23 15:50:10;;;;;;;0.90;0.40;;;11.20;99.90;;;;;;10022000;28;20033;-71
2023/12/23 15:55:02;;;;;;;0.45;0.32;;;11.20;99.90;;;;;;10035505;28;20026;-74
2023/12/23 15:59:53;;;;;;;1.30;0.68;;;11.20;99.90;;;;;;10010804;28;20032;-70
2023/12/23 16:04:43;;;;;;;0.40;0.30;;;11.20;99.90;;;;;;10024071;28;20377;-76
2023/12/23 16:09:34;;;;;;;0.88;0.63;;;11.30;99.90;;;;;;10028432;28;20055;-73
2023/12/23 16:14:25;;;;;;;0.63;0.45;;;11.20;99.90;;;;;;10046750;28;20101;-70
2023/12/23 16:19:16;;;;;;;1.23;0.70;;;11.20;99.90;;;;;;10018615;28;20373;-70
2023/12/23 16:24:06;;;;;;;1.33;0.60;;;11.10;99.90;;;;;;10026102;28;20030;-74
2023/12/23 16:28:57;;;;;;;0.50;0.40;;;11.10;99.90;;;;;;10008034;28;20566;-70
2023/12/23 16:33:48;;;;;;;1.67;0.57;;;11.10;99.90;;;;;;10054165;28;20025;-69
2023/12/23 16:38:38;;;;;;;1.35;0.43;;;11.00;99.90;;;;;;10046370;28;20087;-70
2023/12/23 16:43:32;;;;;;;0.50;0.40;;;11.00;99.90;;;;;;10041616;28;20444;-74
2023/12/23 16:48:25;;;;;;;1.65;0.60;;;11.00;99.90;;;;;;10038007;28;20050;-71
2023/12/23 16:53:16;;;;;;;0.93;0.50;;;11.00;99.90;;;;;;10032238;28;20443;-69
2023/12/23 16:58:06;;;;;;;0.80;0.43;;;11.10;99.90;;;;;;10026448;28;20029;-70
2023/12/23 17:02:57;;;;;;;1.27;0.60;;;11.00;99.90;;;;;;10021010;28;20502;-70
2023/12/23 17:07:47;;;;;;;0.80;0.73;;;11.10;99.90;;;;;;10028074;28;20029;-73
2023/12/23 17:12:38;;;;;;;0.85;0.50;;;11.10;99.90;;;;;;10044719;28;20049;-72
2023/12/23 17:17:29;;;;;;;1.17;0.63;;;11.10;99.90;;;;;;10041460;28;20030;-70
2023/12/23 17:22:19;;;;;;;2.35;0.52;;;11.10;99.90;;;;;;10027227;28;20365;-70
2023/12/23 17:27:10;;;;;;;1.80;0.90;;;11.10;99.90;;;;;;10019546;28;20042;-74
2023/12/23 17:32:01;;;;;;;1.60;0.70;;;11.10;99.90;;;;;;10016557;28;20222;-72
2023/12/23 17:36:51;;;;;;;1.98;0.55;;;11.10;99.90;;;;;;10049845;28;20034;-70
2023/12/23 17:41:42;;;;;;;0.63;0.40;;;11.10;99.90;;;;;;10045073;28;20472;-70
2023/12/23 17:46:33;;;;;;;1.83;0.77;;;11.00;99.90;;;;;;10029225;28;20022;-72
2023/12/23 17:51:24;;;;;;;2.17;0.93;;;11.10;99.90;;;;;;10006271;28;20038;-71
2023/12/23 17:56:18;;;;;;;2.00;0.57;;;11.00;99.90;;;;;;10033615;28;20522;-73
2023/12/23 18:01:09;;;;;;;1.17;0.57;;;11.00;99.90;;;;;;10019793;28;20030;-70
2023/12/23 18:06:00;;;;;;;1.38;0.60;;;11.00;99.90;;;;;;10007525;28;20028;-73
2023/12/23 18:10:50;;;;;;;0.63;0.40;;;11.00;99.90;;;;;;10055619;28;20069;-71
2023/12/23 18:15:41;;;;;;;1.42;0.50;;;11.00;99.90;;;;;;10050574;28;20030;-73
2023/12/23 18:20:32;;;;;;;0.50;0.38;;;11.00;99.90;;;;;;10037960;28;20033;-71
2023/12/23 18:25:24;;;;;;;0.60;0.45;;;11.00;99.90;;;;;;10011253;28;20466;-71
2023/12/23 18:30:15;;;;;;;0.82;0.47;;;10.90;99.90;;;;;;10040349;28;20150;-70
2023/12/23 18:35:07;;;;;;;0.82;0.50;;;10.90;99.90;;;;;;10058270;28;20022;-75
2023/12/23 18:40:00;;;;;;;1.20;0.50;;;11.00;99.90;;;;;;10037121;28;20523;-74
2023/12/23 18:44:51;;;;;;;0.50;0.40;;;11.00;99.90;;;;;;10041386;28;20021;-73
2023/12/23 18:49:42;;;;;;;1.00;0.57;;;11.00;99.90;;;;;;10016877;28;20566;-75
2023/12/23 18:54:33;;;;;;;1.45;0.52;;;10.90;99.90;;;;;;10034096;28;20036;-70
2023/12/23 18:59:23;;;;;;;0.80;0.38;;;11.00;99.90;;;;;;10019788;28;20036;-70
2023/12/23 19:04:14;;;;;;;1.05;0.50;;;11.00;99.90;;;;;;10023530;28;20029;-71
2023/12/23 19:09:05;;;;;;;1.02;0.60;;;11.00;99.90;;;;;;10036452;28;20034;-72
2023/12/23 19:13:56;;;;;;;1.10;0.50;;;10.90;99.90;;;;;;10024166;28;20076;-73
2023/12/23 19:18:47;;;;;;;1.33;0.70;;;10.90;99.90;;;;;;10015689;28;20526;-72
2023/12/23 19:23:37;;;;;;;2.83;0.68;;;10.90;99.90;;;;;;10023056;28;20038;-72
2023/12/23 19:28:29;;;;;;;1.67;0.50;;;10.90;99.90;;;;;;10013388;28;20054;-72
2023/12/23 19:33:20;;;;;;;0.40;0.30;;;10.90;99.90;;;;;;10026166;28;20127;-73
2023/12/23 19:38:11;;;;;;;1.63;0.68;;;10.90;99.90;;;;;;10027541;28;20030;-72
2023/12/23 19:43:01;;;;;;;0.93;0.60;;;10.90;99.90;;;;;;10027100;28;20052;-72
2023/12/23 19:47:52;;;;;;;1.02;0.50;;;10.90;99.90;;;;;;10029648;28;20036;-72
2023/12/23 19:52:43;;;;;;;1.98;0.70;;;10.90;99.90;;;;;;10027521;28;20042;-73
2023/12/23 19:57:34;;;;;;;1.23;0.70;;;10.90;99.90;;;;;;10011415;28;20499;-72
2023/12/23 20:02:25;;;;;;;1.67;0.60;;;10.90;99.90;;;;;;10021644;28;20389;-72
2023/12/23 20:07:15;;;;;;;1.02;0.50;;;10.90;99.90;;;;;;10004120;28;20029;-73
2023/12/23 20:12:06;;;;;;;6.03;0.80;;;10.80;99.90;;;;;;10001967;28;20535;-72
2023/12/23 20:16:57;;;;;;;0.77;0.50;;;10.80;99.90;;;;;;10029174;28;20025;-73
2023/12/23 20:21:50;;;;;;;1.45;0.40;;;10.90;99.90;;;;;;10025927;28;20022;-74
2023/12/23 20:26:40;;;;;;;0.88;0.43;;;10.80;99.90;;;;;;10022250;28;20495;-72
2023/12/23 20:31:31;;;;;;;0.70;0.40;;;10.90;99.90;;;;;;10031254;28;20038;-73
2023/12/23 20:36:22;;;;;;;1.15;0.43;;;10.90;99.90;;;;;;10033967;28;20025;-73
2023/12/23 20:41:12;;;;;;;0.70;0.50;;;10.90;99.90;;;;;;10043609;28;20041;-73
2023/12/23 20:46:03;;;;;;;0.45;0.40;;;10.80;99.90;;;;;;10022753;28;20462;-72
2023/12/23 20:50:54;;;;;;;2.08;0.73;;;10.90;99.90;;;;;;10035633;28;20103;-73
2023/12/23 20:55:46;;;;;;;2.22;0.65;;;10.90;99.90;;;;;;10030257;28;20044;-73
2023/12/23 21:00:37;;;;;;;0.60;0.60;;;10.90;99.90;;;;;;10024912;28;20045;-73
2023/12/23 21:05:28;;;;;;;1.48;0.68;;;10.90;99.90;;;;;;10032650;28;20025;-72
2023/12/23 21:10:18;;;;;;;1.10;0.82;;;10.90;99.90;;;;;;10052144;28;20068;-71
2023/12/23 21:15:09;;;;;;;2.20;0.50;;;10.90;99.90;;;;;;10033645;28;20594;-70
2023/12/23 21:20:01;;;;;;;0.68;0.38;;;10.90;99.90;;;;;;10031505;28;20025;-73
2023/12/23 21:24:53;;;;;;;1.63;1.10;;;10.90;99.90;;;;;;10027450;28;20040;-72
2023/12/23 21:29:43;;;;;;;1.20;0.70;;;10.90;99.90;;;;;;10028041;28;20049;-72
2023/12/23 21:34:34;;;;;;;0.98;0.55;;;10.90;99.90;;;;;;10027917;28;20403;-72
2023/12/23 21:39:26;;;;;;;1.05;0.60;;;10.90;99.90;;;;;;10046650;28;20064;-73
2023/12/23 21:44:17;;;;;;;1.23;0.50;;;10.80;99.90;;;;;;10042246;28;20049;-72
2023/12/23 21:49:08;;;;;;;1.67;0.90;;;10.80;99.90;;;;;;10036941;28;20495;-73
2023/12/23 21:53:58;;;;;;;1.35;0.40;;;10.80;99.90;;;;;;10034590;28;20034;-73
2023/12/23 21:58:49;;;;;;;0.43;0.30;;;10.70;99.90;;;;;;10029123;28;20038;-73
2023/12/23 22:03:39;;;;;;;0.85;0.60;;;10.80;99.90;;;;;;10026225;28;20038;-72
2023/12/23 22:08:30;;;;;;;0.57;0.52;;;10.80;99.90;;;;;;10020957;28;20022;-73
2023/12/23 22:13:21;;;;;;;0.32;0.32;;;10.80;99.90;;;;;;10032771;28;20502;-73
2023/12/23 22:18:12;;;;;;;0.55;0.55;;;10.80;99.90;;;;;;10036936;28;20525;-73
2023/12/23 22:23:03;;;;;;;0.80;0.45;;;10.70;99.90;;;;;;10029544;28;20030;-73
2023/12/23 22:27:53;;;;;;;0.80;0.50;;;10.80;99.90;;;;;;10026789;28;20108;-73
2023/12/23 22:32:44;;;;;;;2.72;0.80;;;10.70;99.90;;;;;;10022580;28;20390;-73
2023/12/23 22:37:35;;;;;;;0.82;0.40;;;10.80;99.90;;;;;;10030368;28;20049;-73
2023/12/23 22:42:26;;;;;;;1.42;0.50;;;10.80;99.90;;;;;;10027783;28;20563;-71
2023/12/23 22:47:17;;;;;;;0.73;0.47;;;10.80;99.90;;;;;;10016399;28;20037;-72
2023/12/23 22:52:08;;;;;;;1.08;0.50;;;10.80;99.90;;;;;;10033433;28;20776;-73
2023/12/23 22:56:59;;;;;;;1.15;0.52;;;10.80;99.90;;;;;;10031811;28;20583;-72
2023/12/23 23:01:50;;;;;;;0.88;0.50;;;10.80;99.90;;;;;;10027023;28;20041;-70
2023/12/23 23:06:41;;;;;;;2.17;0.65;;;10.90;99.90;;;;;;10028768;28;20033;-71
2023/12/23 23:11:31;;;;;;;0.30;0.30;;;10.90;99.90;;;;;;10025315;28;20046;-72
2023/12/23 23:16:22;;;;;;;0.20;0.20;;;10.90;99.90;;;;;;10023409;28;20025;-73
2023/12/23 23:21:13;;;;;;;1.10;0.38;;;10.90;99.90;;;;;;10031627;28;20030;-73
2023/12/23 23:26:05;;;;;;;0.50;0.30;;;10.90;99.90;;;;;;10025671;28;20616;-72
2023/12/23 23:30:56;;;;;;;0.38;0.35;;;10.90;99.90;;;;;;10030437;28;20068;-73
2023/12/23 23:35:46;;;;;;;0.90;0.40;;;11.00;99.90;;;;;;10034733;28;20644;-73
2023/12/23 23:40:37;;;;;;;0.28;0.28;;;11.00;99.90;;;;;;10020002;28;20044;-72
2023/12/23 23:45:28;;;;;;;0.32;0.30;;;11.00;99.90;;;;;;10042929;28;20021;-72
2023/12/23 23:50:20;;;;;;;0.60;0.20;;;11.00;99.90;;;;;;10036839;28;20136;-72
2023/12/23 23:55:11;;;;;;;0.30;0.20;;;11.00;99.90;;;;;;10032590;28;20030;-71
